createdAt,value
2018-02-07T00:00:18.699Z,6.9
2018-02-07T00:02:19.452Z,7.4
2018-02-07T00:04:19.201Z,8.1
2018-02-07T00:06:18.748Z,8.8
2018-02-07T00:08:18.556Z,7.3
2018-02-07T00:10:18.922Z,9.4
2018-02-07T00:12:18.675Z,6.5
2018-02-07T00:14:19.401Z,8.9
2018-02-07T00:16:18.907Z,8.8
2018-02-07T00:18:18.711Z,8.8
2018-02-07T00:20:19.555Z,8.3
2018-02-07T00:22:19.296Z,8.4
2018-02-07T00:24:19.042Z,8.7
2018-02-07T00:26:18.507Z,8.3
2018-02-07T00:28:19.220Z,9.5
2018-02-07T00:30:19.040Z,9.2
2018-02-07T00:32:18.804Z,9.4
2018-02-07T00:34:18.573Z,9.9
2018-02-07T00:36:19.178Z,8.6
2018-02-07T00:38:18.940Z,9.9
2018-02-07T00:40:19.165Z,7.9
2018-02-07T00:42:18.930Z,7.8
2018-02-07T00:44:18.681Z,8
2018-02-07T00:46:19.290Z,9.2
2018-02-07T00:48:19.051Z,10.1
2018-02-07T00:50:18.863Z,8.9
2018-02-07T00:52:18.654Z,10.4
2018-02-07T00:54:19.399Z,9.4
2018-02-07T00:56:19.014Z,9.8
2018-02-07T00:58:18.794Z,8.8
2018-02-07T01:00:18.569Z,10.4
2018-02-07T01:02:19.318Z,9.6
2018-02-07T01:04:19.062Z,9.9
2018-02-07T01:06:18.594Z,8.6
2018-02-07T01:08:19.343Z,10.4
2018-02-07T01:10:18.607Z,9.6
2018-02-07T01:12:19.389Z,9.7
2018-02-07T01:14:19.140Z,10
2018-02-07T01:16:18.688Z,9.4
2018-02-07T01:18:18.539Z,10.4
2018-02-07T01:20:19.321Z,11.2
2018-02-07T01:22:19.089Z,10.6
2018-02-07T01:24:18.838Z,11
2018-02-07T01:26:18.581Z,9.5
2018-02-07T01:28:19.352Z,9.1
2018-02-07T01:30:19.098Z,9.8
2018-02-07T01:32:18.839Z,9.3
2018-02-07T01:34:18.582Z,9.9
2018-02-07T01:36:18.643Z,10.5
2018-02-07T01:38:19.418Z,9.2
2018-02-07T01:40:18.624Z,9.8
2018-02-07T01:42:19.379Z,11.4
2018-02-07T01:44:19.134Z,9.1
2018-02-07T01:46:19.149Z,10.2
2018-02-07T01:48:18.942Z,11
2018-02-07T01:50:18.722Z,9.9
2018-02-07T01:52:19.444Z,10.3
2018-02-07T01:54:19.198Z,11.1
2018-02-07T01:56:18.685Z,10.2
2018-02-07T01:58:19.448Z,11.9
2018-02-07T02:00:19.188Z,10.3
2018-02-07T02:02:18.948Z,11.3
2018-02-07T02:04:18.697Z,11.5
2018-02-07T02:06:19.290Z,11.2
2018-02-07T02:08:19.063Z,10.5
2018-02-07T02:10:19.297Z,12.5
2018-02-07T02:12:19.013Z,11.4
2018-02-07T02:14:18.750Z,11.5
2018-02-07T02:16:19.331Z,11.7
2018-02-07T02:18:19.178Z,10.8
2018-02-07T02:20:18.932Z,11.6
2018-02-07T02:22:18.671Z,10.8
2018-02-07T02:24:19.408Z,12.2
2018-02-07T02:26:18.973Z,11.3
2018-02-07T02:28:18.696Z,11.7
2018-02-07T02:30:19.460Z,11.1
2018-02-07T02:32:19.204Z,13.3
2018-02-07T02:34:18.924Z,10.1
2018-02-07T02:36:18.986Z,11.9
2018-02-07T02:38:18.730Z,13.3
2018-02-07T02:40:18.937Z,11.7
2018-02-07T02:42:18.694Z,11.8
2018-02-07T02:44:19.444Z,12
2018-02-07T02:46:19.020Z,9.8
2018-02-07T02:48:18.752Z,11.3
2018-02-07T02:50:18.504Z,13
2018-02-07T02:52:19.266Z,11.4
2018-02-07T02:54:18.998Z,11.9
2018-02-07T02:56:18.531Z,10.9
2018-02-07T02:58:19.275Z,10.6
2018-02-07T03:00:19.071Z,10.7
2018-02-07T03:02:18.819Z,11.7
2018-02-07T03:04:18.561Z,11.4
2018-02-07T03:06:19.140Z,13
2018-02-07T03:08:18.909Z,12.6
2018-02-07T03:10:19.146Z,12.8
2018-02-07T03:12:18.921Z,12
2018-02-07T03:14:18.686Z,11.8
2018-02-07T03:16:19.248Z,12.7
2018-02-07T03:18:19.090Z,11.8
2018-02-07T03:20:18.866Z,12.2
2018-02-07T03:22:18.622Z,13.3
2018-02-07T03:24:19.366Z,11.2
2018-02-07T03:26:18.939Z,11.6
2018-02-07T03:28:18.700Z,13.2
2018-02-07T03:30:19.457Z,12.2
2018-02-07T03:32:19.207Z,11.3
2018-02-07T03:34:18.960Z,12.6
2018-02-07T03:36:18.993Z,14.4
2018-02-07T03:38:18.747Z,13.9
2018-02-07T03:40:18.997Z,13
2018-02-07T03:42:18.745Z,11.8
2018-02-07T03:44:18.496Z,12.5
2018-02-07T03:46:19.075Z,12.2
2018-02-07T03:48:18.853Z,12.5
2018-02-07T03:50:18.655Z,12.7
2018-02-07T03:52:19.430Z,12.4
2018-02-07T03:54:19.167Z,13.6
2018-02-07T03:56:18.712Z,13.8
2018-02-07T03:58:19.465Z,13.5
2018-02-07T04:00:19.197Z,13.4
2018-02-07T04:02:18.947Z,12.8
2018-02-07T04:04:18.675Z,13.6
2018-02-07T04:06:18.899Z,13.3
2018-02-07T04:08:18.643Z,13.2
2018-02-07T04:10:18.846Z,14.9
2018-02-07T04:12:18.598Z,13.5
2018-02-07T04:14:19.323Z,14.8
2018-02-07T04:16:18.930Z,13.5
2018-02-07T04:18:18.741Z,12.3
2018-02-07T04:20:18.524Z,13.1
2018-02-07T04:22:19.360Z,13.3
2018-02-07T04:24:19.189Z,12.3
2018-02-07T04:26:18.988Z,13
2018-02-07T04:28:18.847Z,14.2
2018-02-07T04:30:18.732Z,12.9
2018-02-07T04:32:18.565Z,14.4
2018-02-07T04:34:19.417Z,13.5
2018-02-07T04:36:18.663Z,12.5
2018-02-07T04:38:19.502Z,14.6
2018-02-07T04:40:18.898Z,14.7
2018-02-07T04:42:18.733Z,13.5
2018-02-07T04:44:18.545Z,13.1
2018-02-07T04:46:19.229Z,13.6
2018-02-07T04:48:19.073Z,13.4
2018-02-07T04:50:18.922Z,13.7
2018-02-07T04:52:18.778Z,15.6
2018-02-07T04:54:18.623Z,13.9
2018-02-07T04:56:19.350Z,14.1
2018-02-07T04:58:19.177Z,13.1
2018-02-07T05:00:19.036Z,14
2018-02-07T05:02:18.852Z,13.1
2018-02-07T05:04:18.730Z,14.5
2018-02-07T05:06:19.135Z,14.3
2018-02-07T05:08:18.997Z,14.2
2018-02-07T05:10:19.474Z,13.8
2018-02-07T05:12:19.330Z,14.9
2018-02-07T05:14:19.189Z,12
2018-02-07T05:16:18.949Z,14.1
2018-02-07T05:18:18.889Z,14.4
2018-02-07T05:20:18.760Z,14.1
2018-02-07T05:22:18.631Z,15.6
2018-02-07T05:24:19.487Z,13.6
2018-02-07T05:26:18.738Z,15.4
2018-02-07T05:28:18.584Z,14.1
2018-02-07T05:30:19.427Z,15.4
2018-02-07T05:32:19.247Z,15
2018-02-07T05:34:19.103Z,13.6
2018-02-07T05:36:19.387Z,14.2
2018-02-07T05:38:19.245Z,13.9
2018-02-07T05:40:18.573Z,14.2
2018-02-07T05:42:19.425Z,15.3
2018-02-07T05:44:19.288Z,14.6
2018-02-07T05:46:19.015Z,14.1
2018-02-07T05:48:18.880Z,14.1
2018-02-07T05:50:18.745Z,14.2
2018-02-07T05:52:18.585Z,13
2018-02-07T05:54:19.435Z,14.5
2018-02-07T05:56:18.705Z,13.6
2018-02-07T05:58:18.571Z,15.5
2018-02-07T06:00:19.390Z,13.8
2018-02-07T06:02:19.248Z,14.8
2018-02-07T06:04:19.110Z,15.3
2018-02-07T06:06:18.852Z,13.9
2018-02-07T06:08:18.706Z,15.6
2018-02-07T06:10:19.071Z,15.8
2018-02-07T06:12:18.905Z,13.2
2018-02-07T06:14:18.755Z,14.9
2018-02-07T06:16:18.520Z,15.8
2018-02-07T06:18:19.465Z,15.3
2018-02-07T06:20:19.299Z,16.5
2018-02-07T06:22:19.135Z,13.7
2018-02-07T06:24:18.967Z,14.8
2018-02-07T06:26:19.467Z,15.6
2018-02-07T06:28:19.336Z,14.6
2018-02-07T06:30:19.199Z,15.6
2018-02-07T06:32:19.050Z,14.8
2018-02-07T06:34:18.906Z,14.6
2018-02-07T06:36:18.673Z,15.2
2018-02-07T06:38:18.514Z,16.1
2018-02-07T06:40:18.937Z,15.2
2018-02-07T06:42:18.802Z,14.9
2018-02-07T06:44:18.635Z,16.3
2018-02-07T06:46:19.485Z,14.7
2018-02-07T06:48:19.323Z,15
2018-02-07T06:50:19.192Z,13.5
2018-02-07T06:52:18.833Z,15.6
2018-02-07T06:54:18.669Z,14.3
2018-02-07T06:56:19.375Z,13.7
2018-02-07T06:58:19.257Z,16.1
2018-02-07T07:00:19.141Z,14.2
2018-02-07T07:02:18.992Z,14.2
2018-02-07T07:04:18.825Z,14.2
2018-02-07T07:06:19.076Z,15.4
2018-02-07T07:08:18.966Z,15.1
2018-02-07T07:10:19.296Z,14.8
2018-02-07T07:12:19.149Z,14.4
2018-02-07T07:14:19.032Z,17.4
2018-02-07T07:16:18.814Z,16
2018-02-07T07:18:18.700Z,13.1
2018-02-07T07:20:18.565Z,14.9
2018-02-07T07:22:19.388Z,13.8
2018-02-07T07:24:19.241Z,15.3
2018-02-07T07:26:18.998Z,14.6
2018-02-07T07:28:18.879Z,15.7
2018-02-07T07:30:18.758Z,17.4
2018-02-07T07:32:18.589Z,14.2
2018-02-07T07:34:19.414Z,17.5
2018-02-07T07:36:19.184Z,15.5
2018-02-07T07:38:19.031Z,15.2
2018-02-07T07:40:19.388Z,16.1
2018-02-07T07:42:19.225Z,15.6
2018-02-07T07:44:19.055Z,16.4
2018-02-07T07:46:19.292Z,18.2
2018-02-07T07:48:19.136Z,16.4
2018-02-07T07:50:19.078Z,15.5
2018-02-07T07:52:18.927Z,14.3
2018-02-07T07:54:18.764Z,17.4
2018-02-07T07:56:18.589Z,15.9
2018-02-07T07:58:19.458Z,15.1
2018-02-07T08:00:19.305Z,17.2
2018-02-07T08:02:19.158Z,16.6
2018-02-07T08:04:18.985Z,16.2
2018-02-07T08:06:19.222Z,17
2018-02-07T08:08:19.069Z,18.4
2018-02-07T08:10:19.406Z,17.8
2018-02-07T08:12:19.235Z,17.4
2018-02-07T08:14:19.085Z,16
2018-02-07T08:16:18.801Z,16
2018-02-07T08:18:18.713Z,17.8
2018-02-07T08:20:18.577Z,15.7
2018-02-07T08:22:19.405Z,16.1
2018-02-07T08:24:19.244Z,18.9
2018-02-07T08:26:18.979Z,16.6
2018-02-07T08:28:18.831Z,16.6
2018-02-07T08:30:18.685Z,16.3
2018-02-07T08:32:18.579Z,17.7
2018-02-07T08:34:19.407Z,16.2
2018-02-07T08:36:19.215Z,18.2
2018-02-07T08:38:19.070Z,16.7
2018-02-07T08:40:19.483Z,17.1
2018-02-07T08:42:19.337Z,18.5
2018-02-07T08:44:19.198Z,15.5
2018-02-07T08:46:18.606Z,17.3
2018-02-07T08:48:19.466Z,17.2
2018-02-07T08:50:19.306Z,18.1
2018-02-07T08:52:19.168Z,19.1
2018-02-07T08:54:19.038Z,17.4
2018-02-07T08:56:18.809Z,18.3
2018-02-07T08:58:18.697Z,19.1
2018-02-07T09:00:18.699Z,19.2
2018-02-07T09:02:18.528Z,17
2018-02-07T09:04:19.393Z,18.8
2018-02-07T09:06:19.167Z,15.7
2018-02-07T09:08:19.022Z,18.8
2018-02-07T09:10:19.347Z,18
2018-02-07T09:12:19.204Z,18.4
2018-02-07T09:14:19.054Z,19.3
2018-02-07T09:16:19.312Z,19.6
2018-02-07T09:18:19.227Z,18.5
2018-02-07T09:20:19.070Z,19.1
2018-02-07T09:22:18.921Z,16.8
2018-02-07T09:24:18.789Z,17.4
2018-02-07T09:26:19.517Z,18.1
2018-02-07T09:28:19.353Z,19.6
2018-02-07T09:30:19.211Z,18.3
2018-02-07T09:32:19.049Z,19.5
2018-02-07T09:34:18.902Z,18
2018-02-07T09:36:18.647Z,19.1
2018-02-07T09:38:19.485Z,19.2
2018-02-07T09:40:18.801Z,17
2018-02-07T09:42:18.647Z,19.5
2018-02-07T09:44:19.493Z,16.9
2018-02-07T09:46:19.188Z,20.3
2018-02-07T09:48:19.028Z,18.2
2018-02-07T09:50:18.872Z,21.3
2018-02-07T09:52:18.738Z,19.8
2018-02-07T09:54:18.648Z,18.4
2018-02-07T09:56:19.445Z,19.5
2018-02-07T09:58:19.296Z,20
2018-02-07T10:00:19.155Z,18.1
2018-02-07T10:02:18.997Z,19.5
2018-02-07T10:04:18.836Z,19
2018-02-07T10:06:18.590Z,20.4
2018-02-07T10:08:19.457Z,20.2
2018-02-07T10:10:18.752Z,18.3
2018-02-07T10:12:18.602Z,19.3
2018-02-07T10:14:19.436Z,20.9
2018-02-07T10:16:18.596Z,19.5
2018-02-07T10:18:19.504Z,20.8
2018-02-07T10:20:19.351Z,20.6
2018-02-07T10:22:19.225Z,19.1
2018-02-07T10:24:19.104Z,19.8
2018-02-07T10:26:19.384Z,21.1
2018-02-07T10:28:19.238Z,19.4
2018-02-07T10:30:19.104Z,18.8
2018-02-07T10:32:18.926Z,19.5
2018-02-07T10:34:18.742Z,20
2018-02-07T10:36:18.784Z,19.9
2018-02-07T10:38:18.633Z,19.4
2018-02-07T10:40:18.990Z,21.1
2018-02-07T10:42:18.842Z,21.9
2018-02-07T10:44:18.700Z,19.1
2018-02-07T10:46:18.730Z,21
2018-02-07T10:48:18.574Z,20.7
2018-02-07T10:50:19.456Z,19.4
2018-02-07T10:52:19.125Z,20.2
2018-02-07T10:54:18.994Z,19.2
2018-02-07T10:56:18.767Z,20.9
2018-02-07T10:58:18.627Z,21
2018-02-07T11:00:19.477Z,20.9
2018-02-07T11:02:19.352Z,20.4
2018-02-07T11:04:19.216Z,22.8
2018-02-07T11:06:18.915Z,20.3
2018-02-07T11:08:18.729Z,20.4
2018-02-07T11:10:19.059Z,21.8
2018-02-07T11:12:18.937Z,21.4
2018-02-07T11:14:18.795Z,20.2
2018-02-07T11:16:19.103Z,22.1
2018-02-07T11:18:19.034Z,19.3
2018-02-07T11:20:18.871Z,19.9
2018-02-07T11:22:18.740Z,21.9
2018-02-07T11:24:18.586Z,23
2018-02-07T11:26:18.881Z,22.9
2018-02-07T11:28:18.744Z,21.2
2018-02-07T11:30:18.601Z,21.1
2018-02-07T11:32:19.441Z,22.3
2018-02-07T11:34:19.287Z,22.5
2018-02-07T11:36:19.036Z,22.4
2018-02-07T11:38:18.884Z,21.4
2018-02-07T11:40:19.249Z,22.6
2018-02-07T11:42:19.096Z,21.4
2018-02-07T11:44:18.951Z,23.2
2018-02-07T11:46:19.211Z,20.2
2018-02-07T11:48:19.081Z,23.5
2018-02-07T11:50:18.949Z,20.6
2018-02-07T11:52:18.830Z,20.7
2018-02-07T11:54:18.690Z,22.5
2018-02-07T11:56:19.399Z,22.6
2018-02-07T11:58:19.244Z,21.9
2018-02-07T12:00:19.118Z,23
2018-02-07T12:02:18.980Z,24.1
2018-02-07T12:04:18.840Z,23.9
2018-02-07T12:06:18.643Z,24.3
2018-02-07T12:08:19.519Z,21.9
2018-02-07T12:10:18.846Z,22.1
2018-02-07T12:12:18.726Z,22.6
2018-02-07T12:14:18.621Z,22.9
2018-02-07T12:16:19.443Z,26.3
2018-02-07T12:18:19.396Z,23
2018-02-07T12:20:19.237Z,23.8
2018-02-07T12:22:19.105Z,23.5
2018-02-07T12:24:18.976Z,24.4
2018-02-07T12:26:18.756Z,24.6
2018-02-07T12:28:18.594Z,23
2018-02-07T12:30:19.450Z,21.4
2018-02-07T12:32:19.332Z,21.5
2018-02-07T12:34:19.193Z,20.4
2018-02-07T12:36:19.033Z,20.9
2018-02-07T12:38:18.881Z,23.4
2018-02-07T12:40:19.174Z,22.4
2018-02-07T12:42:19.046Z,21.4
2018-02-07T12:44:18.928Z,20.8
2018-02-07T12:46:18.736Z,20.4
2018-02-07T12:48:18.578Z,23
2018-02-07T12:50:19.419Z,22.7
2018-02-07T12:52:19.267Z,22
2018-02-07T12:54:19.098Z,20
2018-02-07T12:56:18.806Z,21
2018-02-07T12:58:18.647Z,20.2
2018-02-07T13:00:19.508Z,20.9
2018-02-07T13:02:19.380Z,20.6
2018-02-07T13:04:19.240Z,22.4
2018-02-07T13:06:18.527Z,20.4
2018-02-07T13:08:19.403Z,19.2
2018-02-07T13:10:18.741Z,19.6
2018-02-07T13:12:18.618Z,21.5
2018-02-07T13:14:19.487Z,20.9
2018-02-07T13:16:19.262Z,19.4
2018-02-07T13:18:19.180Z,22.5
2018-02-07T13:20:19.038Z,21.2
2018-02-07T13:22:18.890Z,22.2
2018-02-07T13:24:18.742Z,20.9
2018-02-07T13:26:18.575Z,21.2
2018-02-07T13:28:19.502Z,19.8
2018-02-07T13:30:19.383Z,20.6
2018-02-07T13:32:19.229Z,22.4
2018-02-07T13:34:19.101Z,20.1
2018-02-07T13:36:18.811Z,22.4
2018-02-07T13:38:18.660Z,21.1
2018-02-07T13:40:19.012Z,20.5
2018-02-07T13:42:18.880Z,20.2
2018-02-07T13:44:18.727Z,22.1
2018-02-07T13:46:19.086Z,20.2
2018-02-07T13:48:18.926Z,21.7
2018-02-07T13:50:18.765Z,21.6
2018-02-07T13:52:18.639Z,19.7
2018-02-07T13:54:19.514Z,20.9
2018-02-07T13:56:19.277Z,21.5
2018-02-07T13:58:19.112Z,20.2
2018-02-07T14:00:18.961Z,21.1
2018-02-07T14:02:18.826Z,19.7
2018-02-07T14:04:18.689Z,21.3
2018-02-07T14:06:19.397Z,21.7
2018-02-07T14:08:19.267Z,20.9
2018-02-07T14:10:18.618Z,20.8
2018-02-07T14:12:19.486Z,20.7
2018-02-07T14:14:19.334Z,19
2018-02-07T14:16:18.584Z,20.4
2018-02-07T14:18:18.548Z,19.9
2018-02-07T14:20:19.419Z,18.8
2018-02-07T14:22:18.751Z,24.2
2018-02-07T14:24:18.623Z,21.4
2018-02-07T14:26:19.331Z,19.8
2018-02-07T14:28:19.219Z,19.3
2018-02-07T14:30:19.062Z,19.5
2018-02-07T14:32:18.916Z,19.2
2018-02-07T14:34:18.765Z,18.9
2018-02-07T14:36:18.576Z,19.6
2018-02-07T14:38:19.462Z,18.9
2018-02-07T14:40:18.816Z,16.7
2018-02-07T14:42:18.684Z,18
2018-02-07T14:44:18.581Z,18.2
2018-02-07T14:46:19.308Z,18
2018-02-07T14:48:19.170Z,19.3
2018-02-07T14:50:19.022Z,18.2
2018-02-07T14:52:18.870Z,17.7
2018-02-07T14:54:18.738Z,19.3
2018-02-07T14:56:19.461Z,17.6
2018-02-07T14:58:19.335Z,17.9
2018-02-07T15:00:19.232Z,17
2018-02-07T15:02:19.083Z,18.3
2018-02-07T15:04:18.963Z,18.3
2018-02-07T15:06:18.737Z,18
2018-02-07T15:08:18.597Z,18.3
2018-02-07T15:10:18.996Z,17
2018-02-07T15:12:18.851Z,16.4
2018-02-07T15:14:18.691Z,15.4
2018-02-07T15:16:18.537Z,16.8
2018-02-07T15:18:19.486Z,15.6
2018-02-07T15:20:19.330Z,14.5
2018-02-07T15:22:19.203Z,15.8
2018-02-07T15:24:19.059Z,17.2
2018-02-07T15:26:18.775Z,14.8
2018-02-07T15:28:18.655Z,15.2
2018-02-07T15:30:19.523Z,15.9
2018-02-07T15:32:19.396Z,14.5
2018-02-07T15:34:19.273Z,17.4
2018-02-07T15:36:18.532Z,16.9
2018-02-07T15:38:19.389Z,17.8
2018-02-07T15:40:18.873Z,17.2
2018-02-07T15:42:18.732Z,15.7
2018-02-07T15:44:18.586Z,14.8
2018-02-07T15:46:19.355Z,14.7
2018-02-07T15:48:19.200Z,15.8
2018-02-07T15:50:19.050Z,15.4
2018-02-07T15:52:18.897Z,14.9
2018-02-07T15:54:18.737Z,14.9
2018-02-07T15:56:18.997Z,14.6
2018-02-07T15:58:18.851Z,14.3
2018-02-07T16:00:18.718Z,16.4
2018-02-07T16:02:18.596Z,15.1
2018-02-07T16:04:19.467Z,14.3
2018-02-07T16:06:19.198Z,13.4
2018-02-07T16:08:19.057Z,14.8
2018-02-07T16:10:19.383Z,15.1
2018-02-07T16:12:19.228Z,13.9
2018-02-07T16:14:19.079Z,14.5
2018-02-07T16:16:18.851Z,15.8
2018-02-07T16:18:18.775Z,14.2
2018-02-07T16:20:18.643Z,13.9
2018-02-07T16:22:19.490Z,14
2018-02-07T16:24:19.330Z,14.8
2018-02-07T16:26:18.623Z,16.2
2018-02-07T16:28:19.451Z,15.7
2018-02-07T16:30:19.308Z,15.9
2018-02-07T16:32:19.176Z,14.9
2018-02-07T16:34:19.022Z,16.8
2018-02-07T16:36:19.352Z,18.2
2018-02-07T16:38:19.196Z,16.7
2018-02-07T16:40:19.512Z,18.6
2018-02-07T16:42:19.659Z,17.3
2018-02-07T16:44:19.512Z,18.2
2018-02-07T16:46:19.238Z,17.5
2018-02-07T16:48:19.092Z,16
2018-02-07T16:50:18.918Z,15.6
2018-02-07T16:52:18.809Z,16
2018-02-07T16:54:18.662Z,15.5
2018-02-07T16:56:19.418Z,15
2018-02-07T16:58:19.294Z,16.8
2018-02-07T17:00:19.191Z,16.9
2018-02-07T17:02:19.065Z,16
2018-02-07T17:04:18.921Z,17.6
2018-02-07T17:06:18.640Z,16.2
2018-02-07T17:08:19.491Z,17.6
2018-02-07T17:10:18.825Z,17
2018-02-07T17:12:18.699Z,19.6
2018-02-07T17:14:18.580Z,20.5
2018-02-07T17:16:19.283Z,19.5
2018-02-07T17:18:19.249Z,17.1
2018-02-07T17:20:19.078Z,17.7
2018-02-07T17:22:18.928Z,16.4
2018-02-07T17:24:18.767Z,18.3
2018-02-07T17:26:19.479Z,17.7
2018-02-07T17:28:19.327Z,16.9
2018-02-07T17:30:19.242Z,18
2018-02-07T17:32:19.077Z,19.2
2018-02-07T17:34:18.958Z,19
2018-02-07T17:36:19.234Z,17.4
2018-02-07T17:38:19.069Z,17.3
2018-02-07T17:40:19.370Z,15.7
2018-02-07T17:42:19.226Z,15.1
2018-02-07T17:44:19.065Z,15.6
2018-02-07T17:46:19.328Z,12.2
2018-02-07T17:48:19.219Z,13.2
2018-02-07T17:50:19.087Z,13.2
2018-02-07T17:52:18.956Z,14.1
2018-02-07T17:54:18.804Z,12.6
2018-02-07T17:56:18.604Z,11.5
2018-02-07T17:58:19.463Z,12.2
2018-02-07T18:00:19.315Z,12.2
2018-02-07T18:02:19.182Z,13.4
2018-02-07T18:04:19.053Z,11.2
2018-02-07T18:06:19.311Z,12
2018-02-07T18:08:19.173Z,12.2
2018-02-07T18:10:19.518Z,13.8
2018-02-07T18:12:19.354Z,12
2018-02-07T18:14:19.206Z,12.2
2018-02-07T18:16:20.508Z,13
2018-02-07T18:18:19.422Z,13.9
2018-02-07T18:20:19.292Z,10.4
2018-02-07T18:22:19.148Z,12.1
2018-02-07T18:24:19.028Z,11.7
2018-02-07T18:26:18.748Z,12.9
2018-02-07T18:28:18.597Z,12.3
2018-02-07T18:30:19.584Z,13.1
2018-02-07T18:32:19.455Z,11.4
2018-02-07T18:34:19.323Z,11.5
2018-02-07T18:36:18.585Z,13.5
2018-02-07T18:38:19.418Z,12.6
2018-02-07T18:40:18.787Z,12.6
2018-02-07T18:42:18.650Z,11.4
2018-02-07T18:44:19.470Z,12
2018-02-07T18:46:19.201Z,11.9
2018-02-07T18:48:19.077Z,13.1
2018-02-07T18:50:19.155Z,12.6
2018-02-07T18:52:19.025Z,12.1
2018-02-07T18:54:19.371Z,13.3
2018-02-07T18:56:19.380Z,11.4
2018-02-07T18:58:19.211Z,14.5
2018-02-07T19:00:19.090Z,14.1
2018-02-07T19:02:18.961Z,14.6
2018-02-07T19:04:18.813Z,13
2018-02-07T19:06:18.612Z,11.4
2018-02-07T19:08:19.469Z,14
2018-02-07T19:10:18.760Z,12.8
2018-02-07T19:12:18.604Z,12.1
2018-02-07T19:14:19.481Z,14.4
2018-02-07T19:16:19.423Z,13
2018-02-07T19:18:19.372Z,14.1
2018-02-07T19:20:19.225Z,13.2
2018-02-07T19:22:19.091Z,13.3
2018-02-07T19:24:18.970Z,14.3
2018-02-07T19:26:18.774Z,13.2
2018-02-07T19:28:18.731Z,14
2018-02-07T19:30:18.585Z,14.4
2018-02-07T19:32:19.400Z,15.5
2018-02-07T19:34:19.222Z,15.8
2018-02-07T19:36:19.144Z,16.3
2018-02-07T19:38:19.039Z,16.6
2018-02-07T19:40:19.621Z,18
2018-02-07T19:42:19.480Z,15
2018-02-07T19:44:19.361Z,17.4
2018-02-07T19:46:19.086Z,18.6
2018-02-07T19:48:18.952Z,18.2
2018-02-07T19:50:18.927Z,17.3
2018-02-07T19:52:18.796Z,17.9
2018-02-07T19:54:18.668Z,18.9
2018-02-07T19:56:19.477Z,21
2018-02-07T19:58:19.323Z,19.1
2018-02-07T20:00:19.187Z,20.2
2018-02-07T20:02:19.063Z,18.8
2018-02-07T20:04:18.894Z,19.3
2018-02-07T20:06:18.554Z,20
2018-02-07T20:08:19.654Z,21.3
2018-02-07T20:10:19.028Z,19.4
2018-02-07T20:12:18.891Z,18
2018-02-07T20:14:18.745Z,20.4
2018-02-07T20:16:18.989Z,19.3
2018-02-07T20:18:18.963Z,20.3
2018-02-07T20:20:18.947Z,18.1
2018-02-07T20:22:18.804Z,19.5
2018-02-07T20:24:18.649Z,19.7
2018-02-07T20:26:19.443Z,19.5
2018-02-07T20:28:19.284Z,19.4
2018-02-07T20:30:19.378Z,18.8
2018-02-07T20:32:19.224Z,21.5
2018-02-07T20:34:19.072Z,22
2018-02-07T20:36:18.866Z,20.5
2018-02-07T20:38:18.680Z,21.3
2018-02-07T20:40:19.247Z,21.5
2018-02-07T20:42:19.117Z,20.9
2018-02-07T20:44:18.971Z,21.4
2018-02-07T20:46:18.771Z,22.6
2018-02-07T20:48:18.607Z,22.4
2018-02-07T20:50:19.520Z,20.8
2018-02-07T20:52:19.340Z,21.2
2018-02-07T20:54:19.178Z,20.3
2018-02-07T20:56:19.499Z,22.8
2018-02-07T20:58:19.355Z,23.5
2018-02-07T21:00:19.250Z,20.9
2018-02-07T21:02:19.374Z,21.9
2018-02-07T21:04:20.207Z,22.4
2018-02-07T21:06:18.617Z,20.8
2018-02-07T21:08:19.448Z,23
2018-02-07T21:10:18.902Z,23.2
2018-02-07T21:12:18.767Z,23
2018-02-07T21:14:18.618Z,22.9
2018-02-07T21:16:19.418Z,24.2
2018-02-07T21:18:19.358Z,25.5
2018-02-07T21:20:19.276Z,22.1
2018-02-07T21:22:19.117Z,20
2018-02-07T21:24:18.940Z,22.7
2018-02-07T21:26:19.196Z,23.1
2018-02-07T21:28:19.070Z,23.5
2018-02-07T21:30:18.908Z,24.2
2018-02-07T21:32:18.738Z,25.8
2018-02-07T21:34:18.587Z,26.4
2018-02-07T21:36:19.305Z,25.4
2018-02-07T21:38:19.135Z,26.4
2018-02-07T21:40:19.473Z,23.1
2018-02-07T21:42:19.309Z,26.7
2018-02-07T21:44:19.149Z,26.9
2018-02-07T21:46:19.494Z,27.2
2018-02-07T21:48:19.408Z,25.1
2018-02-07T21:50:18.528Z,24.4
2018-02-07T21:52:19.361Z,25.1
2018-02-07T21:54:19.180Z,23.5
2018-02-07T21:56:18.966Z,23.6
2018-02-07T21:58:18.826Z,25.2
2018-02-07T22:00:18.658Z,24.1
2018-02-07T22:02:19.502Z,24.1
2018-02-07T22:04:19.330Z,23.6
2018-02-07T22:06:18.603Z,23.4
2018-02-07T22:08:19.428Z,24.2
2018-02-07T22:10:18.744Z,23.3
2018-02-07T22:12:19.423Z,22.4
2018-02-07T22:14:19.267Z,20.7
2018-02-07T22:16:18.578Z,23.6
2018-02-07T22:18:19.498Z,21.8
2018-02-07T22:20:19.381Z,21.5
2018-02-07T22:22:19.236Z,22.5
2018-02-07T22:24:19.089Z,22.9
2018-02-07T22:26:18.887Z,21.2
2018-02-07T22:28:18.737Z,22.7
2018-02-07T22:30:18.578Z,23
2018-02-07T22:32:19.410Z,23.5
2018-02-07T22:34:19.278Z,20.8
2018-02-07T22:36:19.011Z,22.4
2018-02-07T22:38:18.857Z,23.6
2018-02-07T22:40:19.208Z,23.4
2018-02-07T22:42:19.057Z,22.3
2018-02-07T22:44:18.910Z,25.6
2018-02-07T22:46:19.177Z,25.2
2018-02-07T22:48:18.996Z,21.9
2018-02-07T22:50:18.826Z,21.8
2018-02-07T22:52:18.667Z,24
2018-02-07T22:54:18.510Z,24.6
2018-02-07T22:56:18.760Z,20.6
2018-02-07T22:58:18.591Z,24.4
2018-02-07T23:00:19.480Z,23.8
2018-02-07T23:02:19.336Z,25.6
2018-02-07T23:04:19.171Z,25.3
2018-02-07T23:06:19.018Z,23.8
2018-02-07T23:08:18.860Z,24.1
2018-02-07T23:10:19.219Z,25
2018-02-07T23:12:19.069Z,22.4
2018-02-07T23:14:18.923Z,24.2
2018-02-07T23:16:18.675Z,23.1
2018-02-07T23:18:18.613Z,23.8
2018-02-07T23:20:19.490Z,24.3
2018-02-07T23:22:19.322Z,25.7
2018-02-07T23:24:19.168Z,24.3
2018-02-07T23:26:18.886Z,23.9
2018-02-07T23:28:18.723Z,24.2
2018-02-07T23:30:18.652Z,24.5
2018-02-07T23:32:19.493Z,26.2
2018-02-07T23:34:19.370Z,25
2018-02-07T23:36:18.651Z,25.7
2018-02-07T23:38:18.501Z,27
2018-02-07T23:40:18.872Z,26.1
2018-02-07T23:42:18.705Z,27.4
2018-02-07T23:44:18.559Z,25.8
2018-02-07T23:46:18.790Z,23.9
2018-02-07T23:48:18.644Z,27.7
2018-02-07T23:50:19.478Z,24.5
2018-02-07T23:52:19.332Z,26.4
2018-02-07T23:54:19.195Z,26.4
2018-02-07T23:56:19.004Z,26
2018-02-07T23:58:18.834Z,24.9
